sensor_id;sensor_type;location;lat;lon;timestamp;P1;durP1;ratioP1;P2;durP2;ratioP2
6852;SDS011;3465;42.144;24.722;2022-10-30T00:00:25;14.47;;;7.33;;
6852;SDS011;3465;42.144;24.722;2022-10-30T00:02:50;14.40;;;7.80;;
6852;SDS011;3465;42.144;24.722;2022-10-30T00:05:16;15.90;;;7.40;;
6852;SDS011;3465;42.144;24.722;2022-10-30T00:07:42;18.80;;;8.30;;
6852;SDS011;3465;42.144;24.722;2022-10-30T00:10:08;15.97;;;7.83;;
6852;SDS011;3465;42.144;24.722;2022-10-30T00:12:34;13.77;;;7.90;;
6852;SDS011;3465;42.144;24.722;2022-10-30T00:14:59;15.27;;;7.83;;
6852;SDS011;3465;42.144;24.722;2022-10-30T00:17:25;12.80;;;7.23;;
6852;SDS011;3465;42.144;24.722;2022-10-30T00:19:51;24.20;;;7.97;;
6852;SDS011;3465;42.144;24.722;2022-10-30T00:22:16;18.00;;;8.57;;
6852;SDS011;3465;42.144;24.722;2022-10-30T00:24:41;15.70;;;7.70;;
6852;SDS011;3465;42.144;24.722;2022-10-30T00:27:07;19.23;;;8.50;;
6852;SDS011;3465;42.144;24.722;2022-10-30T00:29:32;14.83;;;7.70;;
6852;SDS011;3465;42.144;24.722;2022-10-30T00:31:58;19.43;;;8.03;;
6852;SDS011;3465;42.144;24.722;2022-10-30T00:34:23;16.33;;;7.97;;
6852;SDS011;3465;42.144;24.722;2022-10-30T00:36:48;20.60;;;8.47;;
6852;SDS011;3465;42.144;24.722;2022-10-30T00:39:14;17.50;;;7.80;;
6852;SDS011;3465;42.144;24.722;2022-10-30T00:41:39;18.50;;;7.27;;
6852;SDS011;3465;42.144;24.722;2022-10-30T00:46:59;13.77;;;7.67;;
6852;SDS011;3465;42.144;24.722;2022-10-30T00:49:33;17.73;;;8.63;;
6852;SDS011;3465;42.144;24.722;2022-10-30T00:52:01;18.60;;;9.30;;
6852;SDS011;3465;42.144;24.722;2022-10-30T00:54:29;18.10;;;8.90;;
6852;SDS011;3465;42.144;24.722;2022-10-30T00:56:56;16.73;;;8.10;;
6852;SDS011;3465;42.144;24.722;2022-10-30T00:59:22;20.73;;;8.90;;
6852;SDS011;3465;42.144;24.722;2022-10-30T01:01:50;17.30;;;8.60;;
6852;SDS011;3465;42.144;24.722;2022-10-30T01:04:20;18.90;;;8.30;;
6852;SDS011;3465;42.144;24.722;2022-10-30T01:06:47;16.80;;;8.57;;
6852;SDS011;3465;42.144;24.722;2022-10-30T01:09:16;18.10;;;8.10;;
6852;SDS011;3465;42.144;24.722;2022-10-30T01:11:43;12.27;;;6.70;;
6852;SDS011;3465;42.144;24.722;2022-10-30T01:14:09;14.90;;;6.97;;
6852;SDS011;3465;42.144;24.722;2022-10-30T01:22:11;12.83;;;6.90;;
6852;SDS011;3465;42.144;24.722;2022-10-30T01:35:43;31.93;;;7.50;;
6852;SDS011;3465;42.144;24.722;2022-10-30T01:38:22;14.67;;;7.17;;
6852;SDS011;3465;42.144;24.722;2022-10-30T01:40:52;15.37;;;6.83;;
6852;SDS011;3465;42.144;24.722;2022-10-30T01:43:18;12.43;;;6.50;;
6852;SDS011;3465;42.144;24.722;2022-10-30T01:59:16;13.20;;;6.57;;
6852;SDS011;3465;42.144;24.722;2022-10-30T02:01:50;15.00;;;6.87;;
6852;SDS011;3465;42.144;24.722;2022-10-30T02:04:16;12.63;;;6.40;;
6852;SDS011;3465;42.144;24.722;2022-10-30T02:06:41;12.73;;;6.43;;
6852;SDS011;3465;42.144;24.722;2022-10-30T02:09:07;18.00;;;7.13;;
6852;SDS011;3465;42.144;24.722;2022-10-30T02:11:33;12.47;;;6.50;;
6852;SDS011;3465;42.144;24.722;2022-10-30T02:14:01;11.00;;;6.13;;
6852;SDS011;3465;42.144;24.722;2022-10-30T02:16:31;12.53;;;6.20;;
6852;SDS011;3465;42.144;24.722;2022-10-30T02:18:59;19.33;;;6.63;;
6852;SDS011;3465;42.144;24.722;2022-10-30T02:21:26;15.53;;;6.63;;
6852;SDS011;3465;42.144;24.722;2022-10-30T02:23:51;12.83;;;6.33;;
6852;SDS011;3465;42.144;24.722;2022-10-30T02:26:16;14.50;;;6.43;;
6852;SDS011;3465;42.144;24.722;2022-10-30T02:28:42;12.00;;;6.60;;
6852;SDS011;3465;42.144;24.722;2022-10-30T02:31:07;11.33;;;6.20;;
6852;SDS011;3465;42.144;24.722;2022-10-30T02:33:33;12.57;;;6.77;;
6852;SDS011;3465;42.144;24.722;2022-10-30T02:35:58;15.17;;;6.40;;
6852;SDS011;3465;42.144;24.722;2022-10-30T02:38:23;11.83;;;6.53;;
6852;SDS011;3465;42.144;24.722;2022-10-30T02:40:49;17.13;;;6.50;;
6852;SDS011;3465;42.144;24.722;2022-10-30T02:43:14;16.20;;;6.70;;
6852;SDS011;3465;42.144;24.722;2022-10-30T02:45:40;12.83;;;6.67;;
6852;SDS011;3465;42.144;24.722;2022-10-30T02:48:05;15.43;;;6.80;;
6852;SDS011;3465;42.144;24.722;2022-10-30T02:50:31;15.23;;;8.80;;
6852;SDS011;3465;42.144;24.722;2022-10-30T02:52:57;16.00;;;6.43;;
6852;SDS011;3465;42.144;24.722;2022-10-30T02:55:23;14.27;;;6.37;;
6852;SDS011;3465;42.144;24.722;2022-10-30T02:57:48;13.73;;;6.90;;
6852;SDS011;3465;42.144;24.722;2022-10-30T03:00:14;14.23;;;6.40;;
6852;SDS011;3465;42.144;24.722;2022-10-30T03:02:39;11.03;;;6.33;;
6852;SDS011;3465;42.144;24.722;2022-10-30T03:05:05;10.10;;;5.93;;
6852;SDS011;3465;42.144;24.722;2022-10-30T03:07:30;18.97;;;7.10;;
6852;SDS011;3465;42.144;24.722;2022-10-30T03:09:56;10.97;;;6.10;;
6852;SDS011;3465;42.144;24.722;2022-10-30T03:12:21;12.10;;;6.07;;
6852;SDS011;3465;42.144;24.722;2022-10-30T03:14:47;16.07;;;6.27;;
6852;SDS011;3465;42.144;24.722;2022-10-30T03:17:13;15.37;;;6.73;;
6852;SDS011;3465;42.144;24.722;2022-10-30T03:19:38;15.07;;;6.60;;
6852;SDS011;3465;42.144;24.722;2022-10-30T03:22:05;15.17;;;6.47;;
6852;SDS011;3465;42.144;24.722;2022-10-30T03:24:30;14.93;;;6.07;;
6852;SDS011;3465;42.144;24.722;2022-10-30T03:26:56;13.30;;;6.80;;
6852;SDS011;3465;42.144;24.722;2022-10-30T03:29:21;13.50;;;6.50;;
6852;SDS011;3465;42.144;24.722;2022-10-30T03:31:46;15.03;;;6.50;;
6852;SDS011;3465;42.144;24.722;2022-10-30T03:34:12;12.67;;;7.20;;
6852;SDS011;3465;42.144;24.722;2022-10-30T03:36:37;12.33;;;7.03;;
6852;SDS011;3465;42.144;24.722;2022-10-30T03:39:03;13.70;;;6.83;;
6852;SDS011;3465;42.144;24.722;2022-10-30T03:41:28;13.33;;;7.63;;
6852;SDS011;3465;42.144;24.722;2022-10-30T03:43:54;13.73;;;7.10;;
6852;SDS011;3465;42.144;24.722;2022-10-30T03:46:19;15.50;;;7.57;;
6852;SDS011;3465;42.144;24.722;2022-10-30T03:48:47;15.23;;;7.60;;
6852;SDS011;3465;42.144;24.722;2022-10-30T03:51:13;13.37;;;6.93;;
6852;SDS011;3465;42.144;24.722;2022-10-30T03:53:39;16.27;;;7.43;;
6852;SDS011;3465;42.144;24.722;2022-10-30T03:56:04;15.77;;;7.53;;
6852;SDS011;3465;42.144;24.722;2022-10-30T03:58:30;18.27;;;7.57;;
6852;SDS011;3465;42.144;24.722;2022-10-30T04:00:59;17.87;;;8.13;;
6852;SDS011;3465;42.144;24.722;2022-10-30T04:03:25;15.43;;;7.87;;
6852;SDS011;3465;42.144;24.722;2022-10-30T04:05:54;16.07;;;7.87;;
6852;SDS011;3465;42.144;24.722;2022-10-30T04:08:19;20.17;;;8.13;;
6852;SDS011;3465;42.144;24.722;2022-10-30T04:10:45;15.33;;;7.53;;
6852;SDS011;3465;42.144;24.722;2022-10-30T04:13:12;15.50;;;7.70;;
6852;SDS011;3465;42.144;24.722;2022-10-30T04:15:39;17.53;;;7.53;;
6852;SDS011;3465;42.144;24.722;2022-10-30T04:18:05;15.57;;;7.10;;
6852;SDS011;3465;42.144;24.722;2022-10-30T04:20:31;15.90;;;8.27;;
6852;SDS011;3465;42.144;24.722;2022-10-30T04:25:23;17.27;;;7.63;;
6852;SDS011;3465;42.144;24.722;2022-10-30T04:27:50;14.30;;;7.80;;
6852;SDS011;3465;42.144;24.722;2022-10-30T04:30:17;13.20;;;7.30;;
6852;SDS011;3465;42.144;24.722;2022-10-30T04:32:49;13.40;;;7.70;;
6852;SDS011;3465;42.144;24.722;2022-10-30T04:35:16;20.13;;;7.60;;
6852;SDS011;3465;42.144;24.722;2022-10-30T04:37:43;18.87;;;8.07;;
6852;SDS011;3465;42.144;24.722;2022-10-30T04:40:21;20.40;;;7.03;;
6852;SDS011;3465;42.144;24.722;2022-10-30T04:42:48;11.60;;;6.73;;
6852;SDS011;3465;42.144;24.722;2022-10-30T04:45:14;8.70;;;6.40;;
6852;SDS011;3465;42.144;24.722;2022-10-30T04:47:40;13.90;;;6.27;;
6852;SDS011;3465;42.144;24.722;2022-10-30T04:50:05;13.63;;;7.20;;
6852;SDS011;3465;42.144;24.722;2022-10-30T04:52:31;10.97;;;6.07;;
6852;SDS011;3465;42.144;24.722;2022-10-30T04:54:57;15.60;;;7.50;;
6852;SDS011;3465;42.144;24.722;2022-10-30T04:57:22;11.30;;;6.50;;
6852;SDS011;3465;42.144;24.722;2022-10-30T04:59:48;14.77;;;6.60;;
6852;SDS011;3465;42.144;24.722;2022-10-30T05:02:13;12.30;;;6.90;;
6852;SDS011;3465;42.144;24.722;2022-10-30T05:04:38;12.20;;;6.40;;
6852;SDS011;3465;42.144;24.722;2022-10-30T05:07:04;11.27;;;6.30;;
6852;SDS011;3465;42.144;24.722;2022-10-30T05:09:29;11.83;;;6.57;;
6852;SDS011;3465;42.144;24.722;2022-10-30T05:11:55;13.57;;;5.90;;
6852;SDS011;3465;42.144;24.722;2022-10-30T05:14:20;17.67;;;6.57;;
6852;SDS011;3465;42.144;24.722;2022-10-30T05:16:45;15.20;;;7.50;;
6852;SDS011;3465;42.144;24.722;2022-10-30T05:19:11;17.63;;;6.90;;
6852;SDS011;3465;42.144;24.722;2022-10-30T05:21:36;16.70;;;7.07;;
6852;SDS011;3465;42.144;24.722;2022-10-30T05:24:02;16.30;;;6.03;;
6852;SDS011;3465;42.144;24.722;2022-10-30T05:26:27;16.63;;;6.37;;
6852;SDS011;3465;42.144;24.722;2022-10-30T05:28:53;13.67;;;6.27;;
6852;SDS011;3465;42.144;24.722;2022-10-30T05:31:18;20.27;;;6.07;;
6852;SDS011;3465;42.144;24.722;2022-10-30T05:33:43;17.07;;;6.50;;
6852;SDS011;3465;42.144;24.722;2022-10-30T05:36:09;12.67;;;6.23;;
6852;SDS011;3465;42.144;24.722;2022-10-30T05:38:34;12.70;;;6.43;;
6852;SDS011;3465;42.144;24.722;2022-10-30T05:41:00;10.90;;;5.77;;
6852;SDS011;3465;42.144;24.722;2022-10-30T05:43:25;11.83;;;6.33;;
6852;SDS011;3465;42.144;24.722;2022-10-30T05:45:50;17.70;;;6.07;;
6852;SDS011;3465;42.144;24.722;2022-10-30T05:48:16;13.13;;;6.13;;
6852;SDS011;3465;42.144;24.722;2022-10-30T05:50:41;11.03;;;5.30;;
6852;SDS011;3465;42.144;24.722;2022-10-30T05:53:08;12.37;;;5.70;;
6852;SDS011;3465;42.144;24.722;2022-10-30T05:55:33;14.07;;;5.80;;
6852;SDS011;3465;42.144;24.722;2022-10-30T05:57:59;10.20;;;5.70;;
6852;SDS011;3465;42.144;24.722;2022-10-30T06:00:27;16.33;;;7.67;;
6852;SDS011;3465;42.144;24.722;2022-10-30T06:03:01;23.73;;;9.90;;
6852;SDS011;3465;42.144;24.722;2022-10-30T06:05:29;17.67;;;8.10;;
6852;SDS011;3465;42.144;24.722;2022-10-30T06:07:55;13.20;;;5.07;;
6852;SDS011;3465;42.144;24.722;2022-10-30T06:10:24;11.53;;;4.57;;
6852;SDS011;3465;42.144;24.722;2022-10-30T06:15:18;6.60;;;4.50;;
6852;SDS011;3465;42.144;24.722;2022-10-30T06:17:44;10.43;;;6.20;;
6852;SDS011;3465;42.144;24.722;2022-10-30T06:20:10;12.32;;;5.18;;
6852;SDS011;3465;42.144;24.722;2022-10-30T06:22:35;11.60;;;5.10;;
6852;SDS011;3465;42.144;24.722;2022-10-30T06:25:01;19.30;;;5.55;;
6852;SDS011;3465;42.144;24.722;2022-10-30T06:27:27;10.82;;;5.43;;
6852;SDS011;3465;42.144;24.722;2022-10-30T06:29:52;15.13;;;5.90;;
6852;SDS011;3465;42.144;24.722;2022-10-30T06:32:19;17.00;;;5.60;;
6852;SDS011;3465;42.144;24.722;2022-10-30T06:34:45;10.50;;;5.28;;
6852;SDS011;3465;42.144;24.722;2022-10-30T06:37:10;11.07;;;5.00;;
6852;SDS011;3465;42.144;24.722;2022-10-30T06:39:35;19.50;;;6.20;;
6852;SDS011;3465;42.144;24.722;2022-10-30T06:42:01;9.35;;;4.70;;
6852;SDS011;3465;42.144;24.722;2022-10-30T06:44:26;10.50;;;4.50;;
6852;SDS011;3465;42.144;24.722;2022-10-30T06:46:52;16.83;;;4.93;;
6852;SDS011;3465;42.144;24.722;2022-10-30T06:49:18;14.52;;;5.45;;
6852;SDS011;3465;42.144;24.722;2022-10-30T06:51:44;15.57;;;5.05;;
6852;SDS011;3465;42.144;24.722;2022-10-30T06:54:10;8.95;;;4.50;;
6852;SDS011;3465;42.144;24.722;2022-10-30T06:56:35;14.60;;;4.40;;
6852;SDS011;3465;42.144;24.722;2022-10-30T06:59:00;9.07;;;4.18;;
6852;SDS011;3465;42.144;24.722;2022-10-30T07:01:26;9.48;;;4.53;;
6852;SDS011;3465;42.144;24.722;2022-10-30T07:03:51;10.60;;;4.80;;
6852;SDS011;3465;42.144;24.722;2022-10-30T07:06:16;12.65;;;4.47;;
6852;SDS011;3465;42.144;24.722;2022-10-30T07:08:42;15.02;;;4.40;;
6852;SDS011;3465;42.144;24.722;2022-10-30T07:11:07;11.63;;;4.90;;
6852;SDS011;3465;42.144;24.722;2022-10-30T07:13:33;13.32;;;4.20;;
6852;SDS011;3465;42.144;24.722;2022-10-30T07:15:58;13.52;;;4.53;;
6852;SDS011;3465;42.144;24.722;2022-10-30T07:18:23;11.27;;;5.07;;
6852;SDS011;3465;42.144;24.722;2022-10-30T07:20:52;7.22;;;4.20;;
6852;SDS011;3465;42.144;24.722;2022-10-30T07:23:20;21.17;;;6.00;;
6852;SDS011;3465;42.144;24.722;2022-10-30T07:25:45;14.43;;;4.57;;
6852;SDS011;3465;42.144;24.722;2022-10-30T07:28:11;13.20;;;5.30;;
6852;SDS011;3465;42.144;24.722;2022-10-30T07:30:36;17.30;;;5.78;;
6852;SDS011;3465;42.144;24.722;2022-10-30T07:33:02;10.43;;;4.47;;
6852;SDS011;3465;42.144;24.722;2022-10-30T07:35:30;8.75;;;5.43;;
6852;SDS011;3465;42.144;24.722;2022-10-30T07:38:00;8.65;;;4.65;;
6852;SDS011;3465;42.144;24.722;2022-10-30T07:40:28;20.38;;;5.43;;
6852;SDS011;3465;42.144;24.722;2022-10-30T07:42:57;18.15;;;5.63;;
6852;SDS011;3465;42.144;24.722;2022-10-30T07:45:24;9.50;;;5.57;;
6852;SDS011;3465;42.144;24.722;2022-10-30T07:47:50;10.30;;;4.72;;
6852;SDS011;3465;42.144;24.722;2022-10-30T07:50:16;13.18;;;5.05;;
6852;SDS011;3465;42.144;24.722;2022-10-30T07:52:41;13.30;;;5.40;;
6852;SDS011;3465;42.144;24.722;2022-10-30T07:55:10;10.20;;;5.15;;
6852;SDS011;3465;42.144;24.722;2022-10-30T07:57:40;17.17;;;5.35;;
6852;SDS011;3465;42.144;24.722;2022-10-30T08:00:10;9.82;;;4.50;;
6852;SDS011;3465;42.144;24.722;2022-10-30T08:02:37;12.77;;;4.88;;
6852;SDS011;3465;42.144;24.722;2022-10-30T08:05:03;13.40;;;5.10;;
6852;SDS011;3465;42.144;24.722;2022-10-30T08:07:30;8.38;;;4.20;;
6852;SDS011;3465;42.144;24.722;2022-10-30T08:09:56;17.20;;;4.50;;
6852;SDS011;3465;42.144;24.722;2022-10-30T08:12:22;14.63;;;5.32;;
6852;SDS011;3465;42.144;24.722;2022-10-30T08:14:47;11.48;;;4.15;;
6852;SDS011;3465;42.144;24.722;2022-10-30T08:17:13;10.57;;;4.57;;
6852;SDS011;3465;42.144;24.722;2022-10-30T08:19:38;9.95;;;4.07;;
6852;SDS011;3465;42.144;24.722;2022-10-30T08:22:04;8.27;;;3.88;;
6852;SDS011;3465;42.144;24.722;2022-10-30T08:24:29;8.93;;;4.05;;
6852;SDS011;3465;42.144;24.722;2022-10-30T08:26:55;9.38;;;4.15;;
6852;SDS011;3465;42.144;24.722;2022-10-30T08:29:20;15.70;;;4.80;;
6852;SDS011;3465;42.144;24.722;2022-10-30T08:31:49;9.77;;;4.07;;
6852;SDS011;3465;42.144;24.722;2022-10-30T08:34:17;6.70;;;3.78;;
6852;SDS011;3465;42.144;24.722;2022-10-30T08:36:43;8.65;;;3.53;;
6852;SDS011;3465;42.144;24.722;2022-10-30T08:39:08;24.52;;;5.20;;
6852;SDS011;3465;42.144;24.722;2022-10-30T08:41:34;10.73;;;3.90;;
6852;SDS011;3465;42.144;24.722;2022-10-30T08:43:59;7.47;;;3.55;;
6852;SDS011;3465;42.144;24.722;2022-10-30T08:46:24;6.57;;;3.67;;
6852;SDS011;3465;42.144;24.722;2022-10-30T08:48:50;14.65;;;3.50;;
6852;SDS011;3465;42.144;24.722;2022-10-30T08:51:15;9.32;;;3.90;;
6852;SDS011;3465;42.144;24.722;2022-10-30T08:53:41;7.68;;;3.13;;
6852;SDS011;3465;42.144;24.722;2022-10-30T08:56:06;12.15;;;4.05;;
6852;SDS011;3465;42.144;24.722;2022-10-30T08:58:32;15.18;;;4.47;;
6852;SDS011;3465;42.144;24.722;2022-10-30T09:00:57;18.17;;;4.13;;
6852;SDS011;3465;42.144;24.722;2022-10-30T09:03:23;15.70;;;4.50;;
6852;SDS011;3465;42.144;24.722;2022-10-30T09:05:48;13.55;;;3.90;;
6852;SDS011;3465;42.144;24.722;2022-10-30T09:08:14;10.50;;;3.58;;
6852;SDS011;3465;42.144;24.722;2022-10-30T09:10:39;9.77;;;3.80;;
6852;SDS011;3465;42.144;24.722;2022-10-30T09:13:05;13.57;;;3.70;;
6852;SDS011;3465;42.144;24.722;2022-10-30T09:15:31;13.77;;;3.85;;
6852;SDS011;3465;42.144;24.722;2022-10-30T09:17:58;8.88;;;2.88;;
6852;SDS011;3465;42.144;24.722;2022-10-30T09:20:27;7.40;;;3.50;;
6852;SDS011;3465;42.144;24.722;2022-10-30T09:22:53;8.30;;;3.13;;
6852;SDS011;3465;42.144;24.722;2022-10-30T09:25:19;12.93;;;3.55;;
6852;SDS011;3465;42.144;24.722;2022-10-30T09:27:44;8.07;;;2.90;;
6852;SDS011;3465;42.144;24.722;2022-10-30T09:30:10;8.25;;;3.05;;
6852;SDS011;3465;42.144;24.722;2022-10-30T09:32:36;6.00;;;3.50;;
6852;SDS011;3465;42.144;24.722;2022-10-30T09:35:02;5.53;;;2.75;;
6852;SDS011;3465;42.144;24.722;2022-10-30T09:37:27;8.27;;;3.95;;
6852;SDS011;3465;42.144;24.722;2022-10-30T09:39:54;11.02;;;3.70;;
6852;SDS011;3465;42.144;24.722;2022-10-30T09:56:44;12.48;;;2.88;;
6852;SDS011;3465;42.144;24.722;2022-10-30T10:02:01;9.65;;;3.30;;
6852;SDS011;3465;42.144;24.722;2022-10-30T10:04:43;10.27;;;4.07;;
6852;SDS011;3465;42.144;24.722;2022-10-30T10:07:22;17.48;;;4.70;;
6852;SDS011;3465;42.144;24.722;2022-10-30T10:09:54;15.88;;;5.00;;
6852;SDS011;3465;42.144;24.722;2022-10-30T10:12:32;11.50;;;5.50;;
6852;SDS011;3465;42.144;24.722;2022-10-30T10:14:58;12.55;;;6.25;;
6852;SDS011;3465;42.144;24.722;2022-10-30T10:17:35;12.80;;;5.75;;
6852;SDS011;3465;42.144;24.722;2022-10-30T10:20:05;8.80;;;5.55;;
6852;SDS011;3465;42.144;24.722;2022-10-30T10:22:58;10.57;;;6.53;;
6852;SDS011;3465;42.144;24.722;2022-10-30T10:25:28;12.38;;;6.78;;
6852;SDS011;3465;42.144;24.722;2022-10-30T10:44:22;9.57;;;5.15;;
6852;SDS011;3465;42.144;24.722;2022-10-30T10:47:06;9.80;;;4.80;;
6852;SDS011;3465;42.144;24.722;2022-10-30T10:52:07;15.82;;;6.32;;
6852;SDS011;3465;42.144;24.722;2022-10-30T10:54:39;12.65;;;3.78;;
6852;SDS011;3465;42.144;24.722;2022-10-30T10:57:05;7.93;;;3.22;;
6852;SDS011;3465;42.144;24.722;2022-10-30T11:02:09;5.15;;;3.38;;
6852;SDS011;3465;42.144;24.722;2022-10-30T11:05:03;15.90;;;4.28;;
6852;SDS011;3465;42.144;24.722;2022-10-30T11:07:38;6.70;;;2.90;;
6852;SDS011;3465;42.144;24.722;2022-10-30T11:10:13;4.30;;;2.95;;
6852;SDS011;3465;42.144;24.722;2022-10-30T11:12:40;11.20;;;2.85;;
6852;SDS011;3465;42.144;24.722;2022-10-30T11:20:39;5.75;;;2.88;;
6852;SDS011;3465;42.144;24.722;2022-10-30T11:26:26;7.53;;;3.03;;
6852;SDS011;3465;42.144;24.722;2022-10-30T11:31:25;7.05;;;2.72;;
6852;SDS011;3465;42.144;24.722;2022-10-30T11:34:22;8.40;;;2.55;;
6852;SDS011;3465;42.144;24.722;2022-10-30T11:36:49;2.58;;;1.90;;
6852;SDS011;3465;42.144;24.722;2022-10-30T11:39:18;3.80;;;1.98;;
6852;SDS011;3465;42.144;24.722;2022-10-30T11:41:46;3.70;;;1.90;;
6852;SDS011;3465;42.144;24.722;2022-10-30T11:44:20;3.83;;;1.98;;
6852;SDS011;3465;42.144;24.722;2022-10-30T11:46:48;5.22;;;2.22;;
6852;SDS011;3465;42.144;24.722;2022-10-30T11:52:12;8.35;;;3.25;;
6852;SDS011;3465;42.144;24.722;2022-10-30T11:54:40;5.50;;;2.45;;
6852;SDS011;3465;42.144;24.722;2022-10-30T11:57:43;5.35;;;2.10;;
6852;SDS011;3465;42.144;24.722;2022-10-30T12:00:07;6.60;;;3.20;;
6852;SDS011;3465;42.144;24.722;2022-10-30T12:02:46;11.25;;;4.40;;
6852;SDS011;3465;42.144;24.722;2022-10-30T12:07:53;8.63;;;2.55;;
6852;SDS011;3465;42.144;24.722;2022-10-30T12:10:42;5.40;;;1.98;;
6852;SDS011;3465;42.144;24.722;2022-10-30T12:13:15;6.53;;;1.85;;
6852;SDS011;3465;42.144;24.722;2022-10-30T12:15:42;11.93;;;3.33;;
6852;SDS011;3465;42.144;24.722;2022-10-30T12:18:20;19.38;;;4.70;;
6852;SDS011;3465;42.144;24.722;2022-10-30T12:20:51;9.27;;;3.17;;
6852;SDS011;3465;42.144;24.722;2022-10-30T12:23:20;9.48;;;2.78;;
6852;SDS011;3465;42.144;24.722;2022-10-30T12:25:53;8.27;;;2.80;;
6852;SDS011;3465;42.144;24.722;2022-10-30T12:28:22;6.38;;;2.90;;
6852;SDS011;3465;42.144;24.722;2022-10-30T12:33:46;4.65;;;2.00;;
6852;SDS011;3465;42.144;24.722;2022-10-30T12:36:16;7.20;;;2.10;;
6852;SDS011;3465;42.144;24.722;2022-10-30T12:43:53;5.93;;;3.22;;
6852;SDS011;3465;42.144;24.722;2022-10-30T12:51:37;20.90;;;3.65;;
6852;SDS011;3465;42.144;24.722;2022-10-30T12:57:16;19.13;;;3.83;;
6852;SDS011;3465;42.144;24.722;2022-10-30T13:05:31;7.28;;;2.80;;
6852;SDS011;3465;42.144;24.722;2022-10-30T13:08:11;7.82;;;2.00;;
6852;SDS011;3465;42.144;24.722;2022-10-30T13:10:48;7.07;;;1.95;;
6852;SDS011;3465;42.144;24.722;2022-10-30T13:13:22;13.35;;;5.40;;
6852;SDS011;3465;42.144;24.722;2022-10-30T13:15:53;7.97;;;2.88;;
6852;SDS011;3465;42.144;24.722;2022-10-30T13:18:23;4.55;;;1.63;;
6852;SDS011;3465;42.144;24.722;2022-10-30T13:23:41;10.40;;;2.47;;
6852;SDS011;3465;42.144;24.722;2022-10-30T13:33:57;19.17;;;5.97;;
6852;SDS011;3465;42.144;24.722;2022-10-30T13:53:43;60.63;;;22.75;;
6852;SDS011;3465;42.144;24.722;2022-10-30T13:56:12;118.60;;;36.13;;
6852;SDS011;3465;42.144;24.722;2022-10-30T14:01:22;29.85;;;12.95;;
6852;SDS011;3465;42.144;24.722;2022-10-30T14:04:00;194.00;;;100.80;;
6852;SDS011;3465;42.144;24.722;2022-10-30T14:06:51;14.25;;;7.10;;
6852;SDS011;3465;42.144;24.722;2022-10-30T14:09:32;32.25;;;10.95;;
6852;SDS011;3465;42.144;24.722;2022-10-30T14:20:46;7.80;;;2.85;;
6852;SDS011;3465;42.144;24.722;2022-10-30T14:23:14;14.68;;;4.63;;
6852;SDS011;3465;42.144;24.722;2022-10-30T14:26:10;11.63;;;3.25;;
6852;SDS011;3465;42.144;24.722;2022-10-30T14:28:37;9.27;;;3.72;;
6852;SDS011;3465;42.144;24.722;2022-10-30T14:33:44;9.57;;;3.63;;
6852;SDS011;3465;42.144;24.722;2022-10-30T14:36:12;5.03;;;2.80;;
6852;SDS011;3465;42.144;24.722;2022-10-30T14:38:40;9.68;;;3.70;;
6852;SDS011;3465;42.144;24.722;2022-10-30T14:41:20;21.30;;;4.30;;
6852;SDS011;3465;42.144;24.722;2022-10-30T14:43:51;15.80;;;4.32;;
6852;SDS011;3465;42.144;24.722;2022-10-30T14:52:06;25.23;;;6.28;;
6852;SDS011;3465;42.144;24.722;2022-10-30T14:54:45;21.10;;;6.47;;
6852;SDS011;3465;42.144;24.722;2022-10-30T14:57:21;36.33;;;11.18;;
6852;SDS011;3465;42.144;24.722;2022-10-30T15:00:49;42.75;;;13.38;;
6852;SDS011;3465;42.144;24.722;2022-10-30T15:11:17;40.63;;;11.38;;
6852;SDS011;3465;42.144;24.722;2022-10-30T15:13:55;46.30;;;10.43;;
6852;SDS011;3465;42.144;24.722;2022-10-30T15:16:25;39.92;;;8.98;;
6852;SDS011;3465;42.144;24.722;2022-10-30T15:19:03;20.42;;;6.95;;
6852;SDS011;3465;42.144;24.722;2022-10-30T15:21:31;18.85;;;6.47;;
6852;SDS011;3465;42.144;24.722;2022-10-30T15:24:11;18.27;;;5.82;;
6852;SDS011;3465;42.144;24.722;2022-10-30T15:26:40;20.25;;;8.63;;
6852;SDS011;3465;42.144;24.722;2022-10-30T15:29:11;30.23;;;7.95;;
6852;SDS011;3465;42.144;24.722;2022-10-30T15:31:42;23.90;;;11.18;;
6852;SDS011;3465;42.144;24.722;2022-10-30T15:34:21;21.08;;;9.80;;
6852;SDS011;3465;42.144;24.722;2022-10-30T15:36:47;20.45;;;11.13;;
6852;SDS011;3465;42.144;24.722;2022-10-30T15:39:13;22.17;;;8.77;;
6852;SDS011;3465;42.144;24.722;2022-10-30T15:44:18;21.65;;;13.93;;
6852;SDS011;3465;42.144;24.722;2022-10-30T15:47:09;36.22;;;8.98;;
6852;SDS011;3465;42.144;24.722;2022-10-30T15:49:47;34.20;;;10.05;;
6852;SDS011;3465;42.144;24.722;2022-10-30T15:52:27;36.70;;;9.90;;
6852;SDS011;3465;42.144;24.722;2022-10-30T15:55:04;57.55;;;12.02;;
6852;SDS011;3465;42.144;24.722;2022-10-30T15:57:50;37.78;;;10.75;;
6852;SDS011;3465;42.144;24.722;2022-10-30T16:00:23;32.10;;;12.93;;
6852;SDS011;3465;42.144;24.722;2022-10-30T16:05:35;55.05;;;17.55;;
6852;SDS011;3465;42.144;24.722;2022-10-30T16:08:01;61.75;;;19.98;;
6852;SDS011;3465;42.144;24.722;2022-10-30T16:10:33;109.35;;;35.17;;
6852;SDS011;3465;42.144;24.722;2022-10-30T16:13:00;124.50;;;38.28;;
6852;SDS011;3465;42.144;24.722;2022-10-30T16:18:06;100.40;;;30.65;;
6852;SDS011;3465;42.144;24.722;2022-10-30T16:20:46;95.43;;;28.83;;
6852;SDS011;3465;42.144;24.722;2022-10-30T16:23:15;79.68;;;26.58;;
6852;SDS011;3465;42.144;24.722;2022-10-30T16:25:41;87.38;;;24.52;;
6852;SDS011;3465;42.144;24.722;2022-10-30T16:28:21;67.50;;;21.83;;
6852;SDS011;3465;42.144;24.722;2022-10-30T16:31:00;58.55;;;20.08;;
6852;SDS011;3465;42.144;24.722;2022-10-30T16:33:32;53.08;;;17.67;;
6852;SDS011;3465;42.144;24.722;2022-10-30T16:36:01;60.83;;;16.55;;
6852;SDS011;3465;42.144;24.722;2022-10-30T16:38:30;41.88;;;13.25;;
6852;SDS011;3465;42.144;24.722;2022-10-30T16:41:00;49.65;;;13.15;;
6852;SDS011;3465;42.144;24.722;2022-10-30T16:43:29;57.00;;;13.70;;
6852;SDS011;3465;42.144;24.722;2022-10-30T16:46:28;40.38;;;13.63;;
6852;SDS011;3465;42.144;24.722;2022-10-30T16:48:47;47.92;;;15.80;;
6852;SDS011;3465;42.144;24.722;2022-10-30T16:51:25;49.97;;;19.50;;
6852;SDS011;3465;42.144;24.722;2022-10-30T16:53:52;62.47;;;22.17;;
6852;SDS011;3465;42.144;24.722;2022-10-30T16:56:24;53.17;;;24.35;;
6852;SDS011;3465;42.144;24.722;2022-10-30T16:58:52;62.20;;;24.23;;
6852;SDS011;3465;42.144;24.722;2022-10-30T17:01:25;63.25;;;24.30;;
6852;SDS011;3465;42.144;24.722;2022-10-30T17:03:51;69.30;;;23.30;;
6852;SDS011;3465;42.144;24.722;2022-10-30T17:08:51;54.90;;;26.48;;
6852;SDS011;3465;42.144;24.722;2022-10-30T17:11:19;59.22;;;24.73;;
6852;SDS011;3465;42.144;24.722;2022-10-30T17:13:58;54.13;;;24.48;;
6852;SDS011;3465;42.144;24.722;2022-10-30T17:18:57;61.88;;;20.75;;
6852;SDS011;3465;42.144;24.722;2022-10-30T17:21:40;55.25;;;18.33;;
6852;SDS011;3465;42.144;24.722;2022-10-30T17:24:23;43.85;;;17.42;;
6852;SDS011;3465;42.144;24.722;2022-10-30T17:26:53;65.20;;;19.83;;
6852;SDS011;3465;42.144;24.722;2022-10-30T17:32:05;62.20;;;18.70;;
6852;SDS011;3465;42.144;24.722;2022-10-30T17:34:40;49.30;;;17.70;;
6852;SDS011;3465;42.144;24.722;2022-10-30T17:37:05;45.60;;;16.73;;
6852;SDS011;3465;42.144;24.722;2022-10-30T17:39:30;54.22;;;17.65;;
6852;SDS011;3465;42.144;24.722;2022-10-30T17:41:56;60.90;;;26.52;;
6852;SDS011;3465;42.144;24.722;2022-10-30T17:44:22;54.63;;;20.52;;
6852;SDS011;3465;42.144;24.722;2022-10-30T17:46:49;48.17;;;19.13;;
6852;SDS011;3465;42.144;24.722;2022-10-30T17:49:23;61.10;;;19.77;;
6852;SDS011;3465;42.144;24.722;2022-10-30T17:51:52;50.47;;;17.95;;
6852;SDS011;3465;42.144;24.722;2022-10-30T17:54:18;45.17;;;15.27;;
6852;SDS011;3465;42.144;24.722;2022-10-30T17:56:44;43.03;;;15.87;;
6852;SDS011;3465;42.144;24.722;2022-10-30T17:59:10;44.80;;;14.57;;
6852;SDS011;3465;42.144;24.722;2022-10-30T18:01:35;39.78;;;14.23;;
6852;SDS011;3465;42.144;24.722;2022-10-30T18:04:00;45.07;;;13.27;;